Time;durP1;ratioP1;P1;durP2;ratioP2;P2;SDS_P1;SDS_P2;PMS_P1;PMS_P2;Temp;Humidity;BMP_temperature;BMP_pressure;BME280_temperature;BME280_humidity;BME280_pressure;Samples;Min_cycle;Max_cycle;Signal;HPM_P1;HPM_P2
2023/02/09 00:01:14;;;;;;;17.98;10.82;;;;;;;-3.10;100.00;101977.16;5121560;27;20662;-70
2023/02/09 00:03:41;;;;;;;15.85;10.95;;;;;;;-3.20;100.00;101966.78;5122324;28;20204;-70
2023/02/09 00:06:09;;;;;;;20.20;11.43;;;;;;;-3.28;100.00;101972.03;5141463;27;20262;-69
2023/02/09 00:08:36;;;;;;;20.30;11.57;;;;;;;-3.34;100.00;101972.09;5127415;28;20469;-69
2023/02/09 00:11:06;;;;;;;18.07;10.90;;;;;;;-3.36;100.00;101969.50;5121156;27;20233;-70
2023/02/09 00:13:32;;;;;;;17.45;11.63;;;;;;;-3.34;100.00;101972.97;5121794;28;20438;-68
2023/02/09 00:16:00;;;;;;;20.10;10.77;;;;;;;-3.31;100.00;101974.69;5121470;27;20232;-68
2023/02/09 00:18:29;;;;;;;18.63;11.25;;;;;;;-3.42;100.00;101974.75;5128937;28;20521;-68
2023/02/09 00:20:56;;;;;;;14.30;11.77;;;;;;;-3.36;100.00;101976.47;5141021;27;20292;-69
2023/02/09 00:23:24;;;;;;;19.55;12.25;;;;;;;-3.47;100.00;101966.06;5142125;28;20458;-68
2023/02/09 00:25:50;;;;;;;19.45;11.70;;;;;;;-3.46;100.00;101973.03;5140645;27;20315;-69
2023/02/09 00:28:17;;;;;;;18.20;10.50;;;;;;;-3.31;100.00;101966.84;5141066;28;20218;-68
2023/02/09 00:30:44;;;;;;;17.02;10.80;;;;;;;-3.23;100.00;101968.53;5141238;27;20234;-68
2023/02/09 00:33:11;;;;;;;17.95;11.57;;;;;;;-3.08;100.00;101959.69;5125363;28;20882;-68
2023/02/09 00:35:41;;;;;;;16.65;12.20;;;;;;;-3.11;100.00;101961.47;5121614;27;20244;-69
2023/02/09 00:38:08;;;;;;;17.10;11.70;;;;;;;-3.34;100.00;101965.13;5121192;28;20258;-67
2023/02/09 00:40:34;;;;;;;17.88;11.80;;;;;;;-3.47;100.00;101971.28;5120573;27;20263;-69
2023/02/09 00:43:01;;;;;;;20.38;11.40;;;;;;;-3.57;100.00;101956.56;5121756;28;20210;-70
2023/02/09 00:45:28;;;;;;;18.48;12.18;;;;;;;-3.55;100.00;101946.94;5121338;27;20260;-69
2023/02/09 00:47:54;;;;;;;20.33;11.95;;;;;;;-3.38;100.00;101955.56;5120557;28;20256;-70
2023/02/09 00:50:21;;;;;;;17.67;11.38;;;;;;;-3.50;100.00;101956.50;5120634;27;20251;-70
2023/02/09 00:52:49;;;;;;;15.75;10.38;;;;;;;-3.60;100.00;101954.81;5121699;28;20216;-70
2023/02/09 00:55:16;;;;;;;15.43;10.90;;;;;;;-3.47;100.00;101951.25;5141616;27;20189;-70
2023/02/09 00:57:43;;;;;;;16.20;11.65;;;;;;;-3.57;100.00;101952.19;5130061;28;20228;-70
2023/02/09 01:00:11;;;;;;;19.85;11.82;;;;;;;-3.67;100.00;101951.34;5120162;27;20233;-70
2023/02/09 01:02:38;;;;;;;20.30;11.75;;;;;;;-3.70;100.00;101940.03;5122515;28;20208;-70
2023/02/09 01:05:06;;;;;;;21.15;11.35;;;;;;;-3.73;100.00;101940.94;5124088;28;20197;-70
2023/02/09 01:07:33;;;;;;;17.48;10.30;;;;;;;-3.63;100.00;101949.59;5119968;27;20288;-70
2023/02/09 01:10:01;;;;;;;17.98;10.60;;;;;;;-3.39;100.00;101945.09;5124079;28;20208;-70
2023/02/09 01:12:28;;;;;;;18.17;10.73;;;;;;;-3.22;100.00;101945.88;5123993;27;20233;-69
2023/02/09 01:14:55;;;;;;;16.33;10.60;;;;;;;-3.09;100.00;101942.28;5123843;27;20193;-69
2023/02/09 01:17:22;;;;;;;15.45;10.73;;;;;;;-2.93;100.00;101937.78;5136029;27;20281;-69
2023/02/09 01:19:51;;;;;;;11.63;9.47;;;;;;;-2.95;100.00;101923.84;5124303;28;20234;-69
2023/02/09 01:22:18;;;;;;;15.90;11.30;;;;;;;-2.98;100.00;101928.25;5129799;27;20480;-69
2023/02/09 01:24:45;;;;;;;15.27;9.60;;;;;;;-2.99;100.00;101931.72;5144851;27;20464;-69
2023/02/09 01:27:13;;;;;;;16.35;9.32;;;;;;;-2.76;97.30;101929.78;5128859;27;20913;-70
2023/02/09 01:29:39;;;;;;;16.40;10.23;;;;;;;-2.91;97.07;101936.03;5123806;28;20201;-70
2023/02/09 01:32:06;;;;;;;12.73;8.80;;;;;;;-2.89;98.23;101934.25;5123721;27;20477;-70
2023/02/09 01:34:33;;;;;;;18.70;10.80;;;;;;;-2.93;98.96;101935.19;5144730;27;20199;-70
2023/02/09 01:37:00;;;;;;;12.27;9.02;;;;;;;-2.92;100.00;101938.66;5144174;27;20295;-70
2023/02/09 01:39:26;;;;;;;16.20;10.30;;;;;;;-2.97;100.00;101937.81;5143866;27;20267;-70
2023/02/09 01:41:53;;;;;;;24.60;11.45;;;;;;;-2.87;99.97;101936.84;5123566;27;20256;-70
2023/02/09 01:45:11;;;;;;;17.88;11.30;;;;;;;-2.94;100.00;101933.44;5123948;27;20204;-70
2023/02/09 01:47:43;;;;;;;13.18;8.88;;;;;;;-2.78;98.68;101923.69;5047843;28;20349;-69
2023/02/09 01:50:09;;;;;;;13.52;9.63;;;;;;;-2.92;99.21;101922.94;5039112;28;20235;-68
2023/02/09 01:52:36;;;;;;;16.42;10.20;;;;;;;-2.99;98.92;101918.66;5060771;28;20203;-69
2023/02/09 01:55:06;;;;;;;13.82;9.20;;;;;;;-3.15;99.60;101917.91;5050940;28;20358;-69
2023/02/09 01:57:35;;;;;;;14.18;9.50;;;;;;;-3.00;99.72;101914.28;5041792;28;20287;-68
2023/02/09 02:00:06;;;;;;;15.90;8.80;;;;;;;-2.86;98.25;101917.66;5041384;28;20246;-69
2023/02/09 02:02:32;;;;;;;14.30;10.38;;;;;;;-2.99;98.11;101916.03;5040658;28;20553;-70
2023/02/09 02:05:00;;;;;;;14.25;8.50;;;;;;;-3.16;98.78;101917.06;5039771;28;20211;-70
2023/02/09 02:07:30;;;;;;;15.57;8.80;;;;;;;-3.02;98.86;101901.25;5039348;28;20302;-70
2023/02/09 02:09:57;;;;;;;12.27;8.73;;;;;;;-3.05;98.60;101907.34;5039910;28;20238;-69
2023/02/09 02:12:24;;;;;;;12.90;8.33;;;;;;;-3.15;98.64;101908.31;5044880;28;20708;-69
2023/02/09 02:14:51;;;;;;;13.30;8.60;;;;;;;-3.23;99.20;101905.75;5044675;28;20471;-68
2023/02/09 02:17:26;;;;;;;14.30;8.70;;;;;;;-3.24;99.11;101896.16;5053720;28;20254;-69
2023/02/09 02:20:22;;;;;;;13.80;8.52;;;;;;;-3.16;98.69;101890.91;5123388;27;20450;-70
2023/02/09 02:23:11;;;;;;;12.70;8.63;;;;;;;-3.15;98.23;101887.38;5124921;27;20255;-71
2023/02/09 02:25:56;;;;;;;14.48;8.95;;;;;;;-3.07;97.45;101884.72;5117928;28;20690;-71
2023/02/09 02:28:35;;;;;;;13.70;9.02;;;;;;;-3.07;97.11;101880.34;5101838;28;20232;-70
2023/02/09 02:31:17;;;;;;;14.13;8.90;;;;;;;-2.85;95.75;101873.16;5118502;27;20259;-71
2023/02/09 02:33:51;;;;;;;12.70;8.73;;;;;;;-2.90;94.93;101874.97;5122494;27;20235;-70
2023/02/09 02:36:26;;;;;;;11.60;7.77;;;;;;;-2.59;93.34;101873.75;5123147;27;20234;-70
2023/02/09 02:38:57;;;;;;;11.02;8.10;;;;;;;-2.63;92.14;101869.47;5143667;27;20465;-69
2023/02/09 02:41:28;;;;;;;15.13;9.27;;;;;;;-2.50;91.35;101876.28;5122934;27;20268;-70
2023/02/09 02:44:00;;;;;;;16.58;9.75;;;;;;;-2.49;91.16;101864.94;5121636;28;20443;-70
2023/02/09 02:46:30;;;;;;;14.47;9.73;;;;;;;-2.61;91.16;101865.94;5122221;27;20240;-68
2023/02/09 02:49:01;;;;;;;17.07;9.53;;;;;;;-2.69;91.84;101860.78;5122561;27;20454;-68
2023/02/09 02:51:29;;;;;;;15.27;8.70;;;;;;;-2.89;93.10;101852.25;5122351;27;20531;-67
2023/02/09 02:53:58;;;;;;;15.38;9.27;;;;;;;-3.08;94.11;101851.56;5122863;27;20462;-68
2023/02/09 02:56:28;;;;;;;17.57;9.23;;;;;;;-3.05;94.32;101846.31;5122022;27;20268;-67
2023/02/09 02:58:56;;;;;;;16.20;9.50;;;;;;;-3.13;94.70;101843.75;5121868;28;20510;-68
2023/02/09 03:01:25;;;;;;;15.23;8.85;;;;;;;-3.18;94.82;101847.31;5130170;27;20231;-68
2023/02/09 03:03:52;;;;;;;14.30;8.63;;;;;;;-3.16;95.18;101851.66;5142263;27;20449;-69
2023/02/09 03:06:20;;;;;;;13.60;8.07;;;;;;;-3.21;94.70;101856.06;5121954;27;20256;-69
2023/02/09 03:08:52;;;;;;;13.63;8.70;;;;;;;-3.32;94.95;101848.28;5123394;27;20220;-70
2023/02/09 03:11:20;;;;;;;15.40;9.35;;;;;;;-3.39;95.88;101849.22;5124525;27;20251;-70
2023/02/09 03:14:02;;;;;;;13.77;8.48;;;;;;;-3.50;96.59;101843.22;5143248;27;20195;-69
2023/02/09 03:16:48;;;;;;;12.73;8.48;;;;;;;-3.41;96.28;101844.00;5140781;27;20300;-68
2023/02/09 03:19:25;;;;;;;14.20;7.90;;;;;;;-3.43;96.35;101840.53;5141801;27;20258;-71
2023/02/09 03:21:56;;;;;;;14.93;9.02;;;;;;;-3.47;96.25;101844.06;5141918;27;20731;-68
2023/02/09 03:24:32;;;;;;;16.63;9.75;;;;;;;-3.45;96.09;101852.75;5142344;27;20689;-69
2023/02/09 03:27:02;;;;;;;14.65;9.40;;;;;;;-3.38;96.65;101857.94;5141324;27;20299;-68
2023/02/09 03:29:29;;;;;;;15.20;8.40;;;;;;;-3.36;96.06;101849.19;5121355;28;20713;-69
2023/02/09 03:31:57;;;;;;;16.58;10.13;;;;;;;-3.22;94.85;101851.69;5120464;27;20274;-69
2023/02/09 03:34:23;;;;;;;16.42;8.05;;;;;;;-3.13;94.11;101848.13;5121741;28;20223;-70
2023/02/09 03:36:54;;;;;;;16.45;9.18;;;;;;;-3.22;94.03;101851.69;5121781;27;20240;-70
2023/02/09 03:39:20;;;;;;;13.48;7.90;;;;;;;-3.23;94.32;101849.94;5141158;27;20228;-69
2023/02/09 03:41:47;;;;;;;11.88;8.25;;;;;;;-3.30;94.05;101843.94;5141754;27;20296;-70
2023/02/09 03:44:26;;;;;;;15.15;9.15;;;;;;;-3.17;93.89;101846.44;5137427;27;20231;-69
2023/02/09 03:46:52;;;;;;;15.20;8.50;;;;;;;-3.37;94.32;101852.69;5120459;28;20228;-69
2023/02/09 03:49:19;;;;;;;15.60;8.32;;;;;;;-3.46;95.24;101847.53;5121221;28;20813;-70
2023/02/09 03:51:46;;;;;;;16.00;8.82;;;;;;;-3.52;94.90;101847.59;5120740;28;20285;-69
2023/02/09 03:54:14;;;;;;;13.52;9.02;;;;;;;-3.62;95.51;101838.94;5121693;28;20197;-69
2023/02/09 03:56:41;;;;;;;15.00;9.20;;;;;;;-3.61;95.60;101843.28;5121118;28;20228;-69
2023/02/09 03:59:07;;;;;;;17.30;8.48;;;;;;;-3.58;95.54;101839.78;5119057;28;20301;-69
2023/02/09 04:01:34;;;;;;;19.63;9.98;;;;;;;-3.45;95.09;101842.28;5121176;27;20232;-69
2023/02/09 04:04:02;;;;;;;13.65;8.55;;;;;;;-3.49;95.64;101837.09;5121114;28;20212;-69
2023/02/09 04:06:30;;;;;;;15.90;9.40;;;;;;;-3.55;96.59;101838.00;5121032;27;20228;-69
2023/02/09 04:08:56;;;;;;;14.25;9.60;;;;;;;-3.57;97.63;101841.53;5134682;28;20227;-70
2023/02/09 04:11:24;;;;;;;12.63;9.30;;;;;;;-3.71;99.44;101849.47;5137069;27;20236;-68
2023/02/09 04:13:51;;;;;;;15.73;10.20;;;;;;;-3.85;100.00;101839.09;5121963;28;20223;-71
2023/02/09 04:16:18;;;;;;;16.23;8.60;;;;;;;-3.76;100.00;101839.03;5132765;27;20261;-70
2023/02/09 04:18:45;;;;;;;15.35;9.90;;;;;;;-3.81;100.00;101836.44;5137858;28;20296;-70
2023/02/09 04:21:12;;;;;;;13.25;8.13;;;;;;;-3.79;100.00;101833.81;5120891;27;20232;-69
2023/02/09 04:23:38;;;;;;;17.20;8.90;;;;;;;-3.90;100.00;101833.03;5141043;28;20196;-69
2023/02/09 04:26:05;;;;;;;18.33;9.68;;;;;;;-4.04;100.00;101822.66;5141384;27;20255;-70
2023/02/09 04:28:33;;;;;;;13.73;9.63;;;;;;;-3.92;100.00;101819.97;5141715;28;20228;-70
2023/02/09 04:31:00;;;;;;;16.10;10.05;;;;;;;-3.91;100.00;101826.91;5141154;27;20236;-71
2023/02/09 04:33:27;;;;;;;11.45;8.07;;;;;;;-3.77;100.00;101813.75;5131435;28;20657;-71
2023/02/09 04:35:53;;;;;;;11.43;7.95;;;;;;;-3.89;100.00;101816.47;5121274;27;20475;-71
2023/02/09 04:38:21;;;;;;;19.08;10.57;;;;;;;-3.66;100.00;101813.72;5140980;27;20280;-71
2023/02/09 04:40:48;;;;;;;14.00;8.98;;;;;;;-3.66;99.23;101805.88;5144790;27;20242;-70
2023/02/09 04:43:15;;;;;;;17.23;9.20;;;;;;;-3.55;98.46;101811.88;5145673;27;20203;-71
2023/02/09 04:45:43;;;;;;;14.15;9.02;;;;;;;-3.75;99.38;101811.16;5144300;27;20319;-71
2023/02/09 04:48:13;;;;;;;15.70;9.48;;;;;;;-3.87;100.00;101805.16;5133653;27;20311;-71
2023/02/09 04:50:40;;;;;;;15.38;9.93;;;;;;;-3.94;100.00;101813.91;5124409;27;20329;-71
2023/02/09 04:53:07;;;;;;;13.23;9.23;;;;;;;-3.70;100.00;101815.44;5125231;28;20185;-71
2023/02/09 04:55:33;;;;;;;18.55;10.35;;;;;;;-3.57;98.02;101805.78;5124941;27;20616;-71
2023/02/09 05:00:45;;;;;;;12.63;8.88;;;;;;;-3.72;97.46;101808.50;5122955;27;20235;-68
2023/02/09 05:03:12;;;;;;;19.85;10.70;;;;;;;-3.80;97.82;101804.22;5123331;28;20399;-70
2023/02/09 05:05:39;;;;;;;18.05;9.63;;;;;;;-3.85;99.30;101807.75;5123670;27;20250;-70
2023/02/09 05:08:06;;;;;;;15.50;10.07;;;;;;;-3.92;99.74;101811.25;5123374;28;20217;-70
2023/02/09 05:10:33;;;;;;;13.88;9.38;;;;;;;-4.06;100.00;101808.72;5143513;27;20258;-70
2023/02/09 05:12:59;;;;;;;12.85;8.98;;;;;;;-4.15;100.00;101812.25;5137037;27;20196;-70
2023/02/09 05:15:26;;;;;;;13.25;9.07;;;;;;;-4.27;100.00;101801.88;5123563;28;20275;-69
2023/02/09 05:17:54;;;;;;;12.80;9.00;;;;;;;-4.36;100.00;101798.47;5124171;28;20265;-70
2023/02/09 05:20:21;;;;;;;19.85;9.93;;;;;;;-4.41;100.00;101804.56;5125767;27;20296;-69
2023/02/09 05:22:48;;;;;;;16.02;9.55;;;;;;;-4.35;100.00;101797.56;5128754;27;20227;-67
2023/02/09 05:25:14;;;;;;;13.90;8.85;;;;;;;-4.22;100.00;101802.72;5122006;27;20200;-69
2023/02/09 05:27:41;;;;;;;14.20;9.15;;;;;;;-4.07;100.00;101786.97;5132984;27;20283;-70
2023/02/09 05:30:09;;;;;;;13.07;8.48;;;;;;;-4.11;100.00;101779.16;5136999;27;20235;-69
2023/02/09 05:32:35;;;;;;;15.15;10.05;;;;;;;-4.21;100.00;101776.59;5134487;27;20240;-69
2023/02/09 05:35:05;;;;;;;14.93;10.13;;;;;;;-4.17;100.00;101777.44;5134884;27;20204;-64
2023/02/09 05:37:31;;;;;;;17.60;9.52;;;;;;;-4.18;100.00;101773.13;5133931;27;20250;-66
2023/02/09 05:39:58;;;;;;;15.60;10.00;;;;;;;-4.13;100.00;101765.25;5123589;27;20240;-66
2023/02/09 05:42:26;;;;;;;14.98;10.75;;;;;;;-3.85;100.00;101764.19;5130096;27;20251;-66
2023/02/09 05:44:53;;;;;;;16.02;9.65;;;;;;;-3.69;100.00;101766.69;5130826;27;20209;-66
2023/02/09 05:47:21;;;;;;;16.25;10.30;;;;;;;-3.75;99.69;101777.16;5122366;27;20236;-66
2023/02/09 05:49:47;;;;;;;19.10;11.52;;;;;;;-3.65;98.53;101789.28;5122287;28;20242;-66
2023/02/09 05:52:16;;;;;;;15.45;9.77;;;;;;;-3.79;98.76;101782.41;5131217;27;20304;-66
2023/02/09 05:54:43;;;;;;;19.23;13.90;;;;;;;-3.82;98.95;101792.91;5123800;28;20725;-65
2023/02/09 05:57:10;;;;;;;15.05;9.70;;;;;;;-3.93;100.00;101797.31;5132168;27;20761;-65
2023/02/09 05:59:36;;;;;;;17.50;10.68;;;;;;;-3.98;100.00;101810.41;5126744;27;20204;-65
2023/02/09 06:02:03;;;;;;;13.82;9.18;;;;;;;-4.08;100.00;101805.25;5125148;27;21595;-71
2023/02/09 06:04:30;;;;;;;18.23;10.20;;;;;;;-4.29;100.00;101812.31;5127154;27;20639;-71
2023/02/09 06:06:57;;;;;;;14.20;9.82;;;;;;;-4.40;100.00;101809.78;5123713;27;20217;-70
2023/02/09 06:09:25;;;;;;;15.57;10.73;;;;;;;-4.24;100.00;101809.69;5122769;27;20590;-69
2023/02/09 06:11:52;;;;;;;20.95;11.65;;;;;;;-4.23;100.00;101814.91;5121084;28;20255;-70
2023/02/09 06:14:18;;;;;;;16.20;9.02;;;;;;;-3.94;100.00;101803.44;5123942;27;20238;-70
2023/02/09 06:16:45;;;;;;;14.80;10.52;;;;;;;-3.38;100.00;101803.88;5121237;28;20297;-70
2023/02/09 06:19:13;;;;;;;15.98;9.95;;;;;;;-3.49;99.38;101797.88;5113958;28;20658;-70
2023/02/09 06:21:40;;;;;;;19.42;10.70;;;;;;;-3.43;98.16;101790.84;5121188;28;20233;-70
2023/02/09 06:24:07;;;;;;;18.67;9.98;;;;;;;-3.35;96.94;101796.03;5122813;27;20197;-70
2023/02/09 06:26:35;;;;;;;18.70;10.80;;;;;;;-3.38;96.15;101800.41;5120603;28;20571;-70
2023/02/09 06:29:02;;;;;;;24.03;11.30;;;;;;;-3.21;95.01;101806.34;5121915;28;20223;-70
2023/02/09 06:31:28;;;;;;;19.17;10.48;;;;;;;-3.14;94.86;101828.97;5117994;28;20804;-71
2023/02/09 06:33:55;;;;;;;16.40;10.33;;;;;;;-3.07;92.61;101825.41;5120704;28;20251;-71
2023/02/09 06:36:22;;;;;;;17.13;9.80;;;;;;;-3.18;93.82;101818.53;5121413;28;20474;-71
2023/02/09 06:38:48;;;;;;;16.02;10.43;;;;;;;-3.35;96.69;101819.56;5121842;28;20482;-71
2023/02/09 06:41:15;;;;;;;17.58;10.48;;;;;;;-3.47;98.12;101815.28;5120200;28;20225;-71
2023/02/09 06:43:43;;;;;;;16.42;9.65;;;;;;;-3.51;99.04;101821.41;5121113;28;20236;-71
2023/02/09 06:46:11;;;;;;;13.70;8.57;;;;;;;-3.31;97.54;101828.25;5123666;27;20233;-71
2023/02/09 06:48:38;;;;;;;17.27;9.20;;;;;;;-2.96;92.47;101813.97;5120575;28;20255;-71
2023/02/09 06:51:07;;;;;;;16.17;9.48;;;;;;;-2.89;92.07;101821.72;5120752;28;20474;-69
2023/02/09 06:53:34;;;;;;;14.63;10.18;;;;;;;-2.91;92.52;101825.25;5130450;27;20712;-70
2023/02/09 06:56:01;;;;;;;16.02;10.10;;;;;;;-2.89;92.58;101834.81;5119345;27;20948;-70
2023/02/09 06:58:28;;;;;;;17.73;10.73;;;;;;;-3.01;94.74;101836.69;5127038;27;20696;-70
2023/02/09 07:00:57;;;;;;;17.70;10.73;;;;;;;-3.20;97.43;101849.06;5126142;27;20255;-71
2023/02/09 07:03:24;;;;;;;20.13;12.53;;;;;;;-3.35;100.00;101850.94;5135959;27;20489;-71
2023/02/09 07:05:51;;;;;;;19.25;13.30;;;;;;;-3.33;100.00;101862.25;5122333;27;20466;-71
2023/02/09 07:08:17;;;;;;;21.85;12.88;;;;;;;-3.20;100.00;101859.53;5139005;27;20288;-71
2023/02/09 07:10:44;;;;;;;23.50;12.60;;;;;;;-3.15;100.00;101868.22;5124157;27;20847;-70
2023/02/09 07:13:11;;;;;;;21.10;11.68;;;;;;;-3.08;100.00;101870.75;5120169;27;20211;-71
2023/02/09 07:15:37;;;;;;;20.25;11.13;;;;;;;-3.07;100.00;101861.16;5119015;28;20263;-69
2023/02/09 07:18:05;;;;;;;20.55;12.60;;;;;;;-2.90;100.00;101863.59;5136384;27;20248;-70
2023/02/09 07:20:32;;;;;;;20.65;11.80;;;;;;;-2.72;100.00;101862.56;5118673;28;20236;-70
2023/02/09 07:23:00;;;;;;;16.85;11.00;;;;;;;-2.67;96.03;101874.72;5121152;28;20204;-70
2023/02/09 07:25:27;;;;;;;22.02;12.77;;;;;;;-2.43;94.35;101875.34;5124821;27;20266;-70
2023/02/09 07:27:53;;;;;;;17.67;10.80;;;;;;;-2.42;91.91;101874.44;5136994;27;20207;-68
2023/02/09 07:30:20;;;;;;;18.20;10.23;;;;;;;-2.35;90.94;101867.38;5141011;27;20480;-68
2023/02/09 07:32:47;;;;;;;28.97;19.63;;;;;;;-2.21;91.20;101867.22;5116613;27;20466;-68
2023/02/09 07:35:15;;;;;;;18.90;11.13;;;;;;;-2.43;94.09;101863.97;5118537;27;20453;-68
2023/02/09 07:37:41;;;;;;;20.33;12.70;;;;;;;-2.38;93.75;101854.31;5141758;27;20473;-67
2023/02/09 07:40:09;;;;;;;18.87;12.20;;;;;;;-2.39;96.02;101847.38;5139620;27;20471;-67
2023/02/09 07:42:36;;;;;;;21.23;11.60;;;;;;;-2.32;95.78;101841.16;5124864;27;20490;-68
2023/02/09 07:45:03;;;;;;;22.15;11.05;;;;;;;-2.10;92.39;101842.63;5127852;27;20454;-68
2023/02/09 07:47:29;;;;;;;18.43;11.70;;;;;;;-1.56;91.85;101839.22;5121191;27;20239;-69
2023/02/09 07:49:56;;;;;;;20.47;13.40;;;;;;;-1.53;90.02;101823.44;5121077;28;21105;-68
2023/02/09 07:52:24;;;;;;;18.17;11.77;;;;;;;-1.05;90.01;101827.88;5120285;27;20970;-68
2023/02/09 07:54:51;;;;;;;18.33;11.40;;;;;;;-0.86;88.40;101814.41;5126005;28;20446;-68
2023/02/09 07:57:17;;;;;;;15.50;10.83;;;;;;;-1.01;88.72;101832.19;5120153;27;21075;-69
2023/02/09 07:59:44;;;;;;;23.10;13.23;;;;;;;-0.73;87.20;101826.38;5118073;28;20455;-69
2023/02/09 08:02:18;;;;;;;26.70;12.77;;;;;;;0.46;83.18;101805.44;5118059;27;20486;-69
2023/02/09 08:04:45;;;;;;;18.57;11.53;;;;;;;1.68;75.27;101803.91;5129103;28;20441;-69
2023/02/09 08:07:12;;;;;;;19.30;11.80;;;;;;;2.47;70.05;101821.72;5120077;27;20553;-69
2023/02/09 08:09:43;;;;;;;20.67;11.47;;;;;;;2.97;61.69;101825.31;5116018;28;20546;-70
2023/02/09 08:12:10;;;;;;;20.07;10.80;;;;;;;3.30;56.04;101818.88;5142127;27;20473;-69
2023/02/09 08:14:41;;;;;;;17.60;12.33;;;;;;;3.90;55.14;101829.88;5131505;27;20459;-69
2023/02/09 08:17:24;;;;;;;17.67;10.90;;;;;;;4.59;53.52;101834.25;5129360;27;20481;-70
2023/02/09 08:19:53;;;;;;;17.50;11.10;;;;;;;4.44;50.99;101833.91;5128783;27;20452;-70
2023/02/09 08:22:21;;;;;;;14.17;10.20;;;;;;;3.51;50.23;101833.97;5123216;27;20484;-69
2023/02/09 08:24:49;;;;;;;15.10;10.23;;;;;;;3.96;50.34;101819.94;5123960;28;20456;-69
2023/02/09 08:27:16;;;;;;;14.70;10.70;;;;;;;4.19;49.28;101830.56;5105504;28;20537;-68
2023/02/09 08:29:42;;;;;;;15.27;10.43;;;;;;;3.85;48.30;101821.25;5103038;28;20517;-69
2023/02/09 08:32:09;;;;;;;15.83;10.63;;;;;;;3.99;48.80;101826.88;5119116;28;20512;-68
2023/02/09 08:34:35;;;;;;;19.53;10.60;;;;;;;4.47;47.00;101836.44;5128056;27;20451;-68
2023/02/09 08:37:02;;;;;;;20.43;9.00;;;;;;;4.44;49.15;101857.75;5143928;27;20492;-68
2023/02/09 08:39:29;;;;;;;15.47;9.37;;;;;;;2.67;50.49;101861.53;5127366;27;20480;-68
2023/02/09 08:41:57;;;;;;;16.30;10.03;;;;;;;3.41;49.53;101864.31;5130049;27;20466;-68
2023/02/09 08:44:23;;;;;;;17.50;10.07;;;;;;;3.89;51.96;101862.53;5144955;27;20428;-68
2023/02/09 08:46:50;;;;;;;19.00;12.10;;;;;;;2.97;53.21;101864.94;5143656;27;20475;-68
2023/02/09 08:49:17;;;;;;;17.63;10.80;;;;;;;3.86;54.86;101867.97;5143345;27;20846;-68
2023/02/09 08:51:43;;;;;;;18.00;11.17;;;;;;;4.53;50.94;101868.00;5127256;27;20554;-69
2023/02/09 08:54:10;;;;;;;18.17;11.07;;;;;;;5.36;50.46;101873.38;5143969;27;20431;-69
2023/02/09 08:56:37;;;;;;;18.37;11.63;;;;;;;6.20;47.79;101868.75;5127275;27;20559;-68
2023/02/09 08:59:05;;;;;;;18.83;12.17;;;;;;;6.54;46.03;101875.94;5118481;27;20486;-68
2023/02/09 09:01:32;;;;;;;18.00;13.57;;;;;;;7.26;44.28;101879.47;5101887;28;20497;-69
2023/02/09 09:03:59;;;;;;;20.40;13.67;;;;;;;7.12;42.96;101890.81;5132456;27;20450;-69
2023/02/09 09:06:26;;;;;;;16.47;11.07;;;;;;;7.42;40.55;101884.00;5139345;27;20549;-69
2023/02/09 09:08:52;;;;;;;15.57;11.20;;;;;;;7.21;41.28;101876.16;5122963;28;20481;-69
2023/02/09 09:11:19;;;;;;;15.73;9.93;;;;;;;7.40;39.23;101881.41;5130728;27;20487;-68
2023/02/09 09:13:47;;;;;;;17.60;11.23;;;;;;;6.96;40.21;101882.75;5122572;28;20487;-68
2023/02/09 09:16:15;;;;;;;21.60;12.00;;;;;;;5.65;40.87;101902.16;5120741;27;20509;-68
2023/02/09 09:18:44;;;;;;;16.37;10.97;;;;;;;6.12;40.72;101902.75;5127199;27;20459;-68
2023/02/09 09:21:10;;;;;;;25.53;11.77;;;;;;;6.63;39.56;101892.38;5124742;27;20482;-69
2023/02/09 09:23:37;;;;;;;15.47;10.63;;;;;;;6.63;41.05;101890.59;5121816;28;20487;-69
2023/02/09 09:26:04;;;;;;;14.97;11.07;;;;;;;6.00;40.79;101889.09;5122194;27;20478;-68
2023/02/09 09:28:31;;;;;;;15.80;10.40;;;;;;;5.28;42.46;101879.88;5128756;27;20493;-68
2023/02/09 09:30:58;;;;;;;19.43;12.07;;;;;;;5.30;43.73;101874.53;5142353;27;20509;-68
2023/02/09 09:33:26;;;;;;;17.60;11.07;;;;;;;5.41;42.24;101892.63;5125682;27;20519;-67
2023/02/09 09:35:53;;;;;;;19.27;11.90;;;;;;;5.27;43.44;101894.06;5125612;27;20482;-67
2023/02/09 09:38:19;;;;;;;18.87;11.73;;;;;;;5.15;42.66;101885.78;5121972;28;20490;-68
2023/02/09 09:40:46;;;;;;;17.50;10.60;;;;;;;4.40;45.54;101880.00;5122024;27;20473;-67
2023/02/09 09:43:21;;;;;;;22.17;11.73;;;;;;;3.69;47.25;101869.44;5135924;27;20480;-67
2023/02/09 09:45:48;;;;;;;18.77;11.50;;;;;;;3.96;46.57;101864.06;5142142;27;20482;-67
2023/02/09 09:48:22;;;;;;;17.50;11.07;;;;;;;4.01;46.84;101864.75;5140234;27;20474;-68
2023/02/09 09:50:51;;;;;;;19.93;12.13;;;;;;;5.06;45.42;101881.75;5137275;27;21025;-68
2023/02/09 09:53:27;;;;;;;12.33;10.57;;;;;;;5.73;43.98;101883.25;5142122;27;20470;-67
2023/02/09 09:55:58;;;;;;;19.13;10.77;;;;;;;6.50;42.32;101879.69;5127354;27;20477;-68
2023/02/09 09:58:24;;;;;;;19.00;11.37;;;;;;;7.98;40.70;101881.91;5125070;27;20438;-66
2023/02/09 10:00:51;;;;;;;20.53;12.30;;;;;;;7.63;38.59;101876.66;5120493;27;21037;-68
2023/02/09 10:03:20;;;;;;;17.93;10.47;;;;;;;6.91;40.12;101878.56;5122245;28;20480;-67
2023/02/09 10:05:49;;;;;;;16.17;10.00;;;;;;;6.81;41.10;101882.66;5137471;27;20490;-67
2023/02/09 10:08:20;;;;;;;16.70;11.87;;;;;;;6.53;39.93;101876.03;5132627;27;20450;-66
2023/02/09 10:10:53;;;;;;;18.67;11.80;;;;;;;6.72;40.59;101868.88;5114982;28;20544;-67
2023/02/09 10:13:22;;;;;;;17.00;12.00;;;;;;;6.54;40.76;101869.75;5122835;28;20441;-67
2023/02/09 10:15:50;;;;;;;18.47;10.60;;;;;;;5.28;42.38;101865.78;5121820;27;20509;-67
2023/02/09 10:18:23;;;;;;;16.70;11.53;;;;;;;5.75;42.47;101869.91;5125679;27;20459;-67
2023/02/09 10:20:52;;;;;;;20.63;11.40;;;;;;;6.27;41.59;101869.28;5120581;28;20487;-67
2023/02/09 10:23:24;;;;;;;18.03;11.83;;;;;;;7.08;39.96;101880.38;5121830;28;20466;-68
2023/02/09 10:26:19;;;;;;;16.93;10.43;;;;;;;7.19;39.81;101878.06;5119704;27;20555;-67
2023/02/09 10:28:48;;;;;;;17.43;10.93;;;;;;;7.08;39.82;101883.94;5120382;27;20458;-67
2023/02/09 10:31:19;;;;;;;18.17;11.90;;;;;;;6.37;39.81;101873.22;5139090;27;20499;-67
2023/02/09 10:33:46;;;;;;;16.30;12.07;;;;;;;5.38;43.26;101866.22;5121678;28;20549;-67
2023/02/09 10:36:24;;;;;;;16.87;11.20;;;;;;;5.27;43.27;101848.97;5121698;27;20972;-67
2023/02/09 10:38:54;;;;;;;18.20;11.10;;;;;;;4.75;46.19;101823.88;5117483;27;20556;-66
2023/02/09 10:41:21;;;;;;;19.53;11.50;;;;;;;5.25;45.47;101848.19;5130683;27;20504;-66
2023/02/09 10:43:51;;;;;;;19.50;12.10;;;;;;;4.88;45.80;101854.22;5121760;27;20457;-67
2023/02/09 10:46:19;;;;;;;20.37;11.47;;;;;;;5.58;43.10;101849.44;5127474;27;20472;-67
2023/02/09 10:48:47;;;;;;;21.00;12.27;;;;;;;5.79;43.13;101861.72;5138873;27;20452;-66
2023/02/09 10:51:15;;;;;;;18.50;11.73;;;;;;;6.48;42.44;101848.81;5118146;27;20502;-66
2023/02/09 10:54:00;;;;;;;16.67;11.60;;;;;;;5.73;43.61;101846.09;5100423;28;20506;-67
2023/02/09 10:56:29;;;;;;;16.03;11.20;;;;;;;5.64;43.27;101847.38;5112243;27;20474;-66
2023/02/09 10:59:00;;;;;;;16.57;11.07;;;;;;;5.33;44.21;101839.91;5123793;27;20450;-66
2023/02/09 11:01:28;;;;;;;17.87;11.20;;;;;;;5.55;44.04;101839.81;5131998;27;20458;-67
2023/02/09 11:04:01;;;;;;;15.90;10.80;;;;;;;6.49;42.42;101840.78;5134209;27;20493;-66
2023/02/09 11:06:28;;;;;;;15.90;10.83;;;;;;;7.32;41.08;101849.00;5120015;27;20475;-66
2023/02/09 11:08:59;;;;;;;18.10;12.87;;;;;;;7.09;40.52;101848.41;5126082;27;20482;-67
2023/02/09 11:11:31;;;;;;;21.30;11.37;;;;;;;6.63;41.79;101842.75;5120937;28;20956;-66
2023/02/09 11:13:58;;;;;;;18.07;11.10;;;;;;;6.56;41.98;101852.81;5120906;28;20454;-67
2023/02/09 11:16:47;;;;;;;20.20;12.67;;;;;;;6.43;42.43;101849.03;5117994;28;20506;-67
2023/02/09 11:19:26;;;;;;;20.60;10.50;;;;;;;6.84;41.88;101845.25;5123490;27;20442;-67
2023/02/09 11:22:01;;;;;;;18.30;12.23;;;;;;;6.37;42.08;101844.00;5140374;27;20474;-66